Time;durP1;ratioP1;P1;durP2;ratioP2;P2;SDS_P1;SDS_P2;PMS_P1;PMS_P2;Temp;Humidity;BMP_temperature;BMP_pressure;BME280_temperature;BME280_humidity;BME280_pressure;Samples;Min_cycle;Max_cycle;Signal;HPM_P1;HPM_P2
2023/02/07 00:00:21;;;;;;;63.30;29.63;;;;;;;;;;1025522;28;20110;-73
2023/02/07 00:00:52;;;;;;;67.47;30.67;;;;;;;;;;1024560;28;20023;-73
2023/02/07 00:01:23;;;;;;;76.22;27.73;;;;;;;;;;1027350;28;20085;-73
2023/02/07 00:01:53;;;;;;;63.97;27.52;;;;;;;;;;1027542;28;20493;-73
2023/02/07 00:02:24;;;;;;;69.80;29.02;;;;;;;;;;1027447;28;20066;-73
2023/02/07 00:02:56;;;;;;;70.65;29.33;;;;;;;;;;1027604;28;20023;-73
2023/02/07 00:03:26;;;;;;;61.50;25.88;;;;;;;;;;1031436;28;20530;-73
2023/02/07 00:03:57;;;;;;;56.63;26.83;;;;;;;;;;1027464;28;20033;-73
2023/02/07 00:04:28;;;;;;;70.85;31.02;;;;;;;;;;1027532;28;20034;-73
2023/02/07 00:04:58;;;;;;;72.50;29.35;;;;;;;;;;1025439;28;20031;-73
2023/02/07 00:05:29;;;;;;;79.57;29.35;;;;;;;;;;1024546;28;20027;-73
2023/02/07 00:06:06;;;;;;;64.50;27.77;;;;;;;;;;1030351;28;20033;-73
2023/02/07 00:06:37;;;;;;;66.80;26.95;;;;;;;;;;1030077;28;20018;-73
2023/02/07 00:07:07;;;;;;;57.45;26.63;;;;;;;;;;1030030;28;20019;-73
2023/02/07 00:07:38;;;;;;;71.85;27.38;;;;;;;;;;1029919;28;20033;-73
2023/02/07 00:08:09;;;;;;;67.82;28.10;;;;;;;;;;1029817;28;20029;-73
2023/02/07 00:08:39;;;;;;;66.95;26.77;;;;;;;;;;1025311;28;20027;-73
2023/02/07 00:09:10;;;;;;;73.65;26.77;;;;;;;;;;1025721;28;20145;-73
2023/02/07 00:09:41;;;;;;;57.25;24.77;;;;;;;;;;1025908;28;20487;-73
2023/02/07 00:10:11;;;;;;;62.45;26.10;;;;;;;;;;1025579;28;20023;-73
2023/02/07 00:10:42;;;;;;;68.55;28.80;;;;;;;;;;1028875;28;20068;-73
2023/02/07 00:11:18;;;;;;;77.15;29.08;;;;;;;;;;1025887;28;20023;-73
2023/02/07 00:11:48;;;;;;;62.65;27.05;;;;;;;;;;1025504;28;20519;-73
2023/02/07 00:12:19;;;;;;;69.97;27.67;;;;;;;;;;1025303;28;20023;-73
2023/02/07 00:12:49;;;;;;;71.15;25.77;;;;;;;;;;1025277;28;20031;-73
2023/02/07 00:13:20;;;;;;;68.13;27.40;;;;;;;;;;1029405;28;20410;-73
2023/02/07 00:13:52;;;;;;;80.10;28.17;;;;;;;;;;1029186;28;20026;-73
2023/02/07 00:14:22;;;;;;;87.82;32.35;;;;;;;;;;1030366;28;20022;-73
2023/02/07 00:14:53;;;;;;;75.22;32.58;;;;;;;;;;1028362;28;20113;-73
2023/02/07 00:15:24;;;;;;;75.80;29.23;;;;;;;;;;1028913;28;20026;-73
2023/02/07 00:15:55;;;;;;;85.15;27.77;;;;;;;;;;1030163;28;20109;-73
2023/02/07 00:16:25;;;;;;;74.00;28.88;;;;;;;;;;1030141;28;20385;-73
2023/02/07 00:16:56;;;;;;;74.53;31.83;;;;;;;;;;1028303;28;20026;-73
2023/02/07 00:17:27;;;;;;;71.80;29.75;;;;;;;;;;1029582;28;20110;-73
2023/02/07 00:17:58;;;;;;;76.32;33.45;;;;;;;;;;1030693;28;20030;-73
2023/02/07 00:18:28;;;;;;;81.03;32.58;;;;;;;;;;1029589;28;20041;-73
2023/02/07 00:18:59;;;;;;;79.05;30.77;;;;;;;;;;1030226;28;20425;-73
2023/02/07 00:19:30;;;;;;;76.30;35.05;;;;;;;;;;1029189;28;20033;-73
2023/02/07 00:20:00;;;;;;;78.72;32.83;;;;;;;;;;1029321;28;20027;-73
2023/02/07 00:20:31;;;;;;;72.72;30.52;;;;;;;;;;1029504;28;20019;-73
2023/02/07 00:21:06;;;;;;;76.68;32.83;;;;;;;;;;1029057;28;20027;-73
2023/02/07 00:21:36;;;;;;;68.80;27.90;;;;;;;;;;1029409;28;20030;-73
2023/02/07 00:22:06;;;;;;;69.93;28.70;;;;;;;;;;1029861;28;20121;-73
2023/02/07 00:22:37;;;;;;;74.43;30.70;;;;;;;;;;1028540;28;20381;-73
2023/02/07 00:23:07;;;;;;;66.82;28.60;;;;;;;;;;1031106;28;20425;-73
2023/02/07 00:23:38;;;;;;;64.85;28.42;;;;;;;;;;1029545;28;20041;-73
2023/02/07 00:24:09;;;;;;;68.97;30.63;;;;;;;;;;1029572;28;20505;-73
2023/02/07 00:24:39;;;;;;;63.55;29.75;;;;;;;;;;1028921;28;20085;-73
2023/02/07 00:25:10;;;;;;;65.63;27.17;;;;;;;;;;1028930;28;20030;-73
2023/02/07 00:25:44;;;;;;;64.72;26.88;;;;;;;;;;1030262;28;20525;-73
2023/02/07 00:26:15;;;;;;;72.25;29.08;;;;;;;;;;1025337;28;20057;-73
2023/02/07 00:26:46;;;;;;;76.32;29.38;;;;;;;;;;1025565;28;20023;-73
2023/02/07 00:27:16;;;;;;;74.30;28.08;;;;;;;;;;1023886;28;20033;-73
2023/02/07 00:27:47;;;;;;;76.30;30.65;;;;;;;;;;1021598;29;20592;-73
2023/02/07 00:28:17;;;;;;;64.32;27.00;;;;;;;;;;1025528;28;20031;-73
2023/02/07 00:28:48;;;;;;;74.05;28.85;;;;;;;;;;1023321;29;20023;-73
2023/02/07 00:29:19;;;;;;;77.05;28.25;;;;;;;;;;1023603;28;20038;-73
2023/02/07 00:29:49;;;;;;;75.43;30.63;;;;;;;;;;1027752;28;20029;-73
2023/02/07 00:30:20;;;;;;;62.25;29.35;;;;;;;;;;1027336;28;20536;-73
2023/02/07 00:30:50;;;;;;;79.97;30.35;;;;;;;;;;1031041;28;20026;-73
2023/02/07 00:31:25;;;;;;;68.00;29.75;;;;;;;;;;1031359;28;20030;-73
2023/02/07 00:31:56;;;;;;;72.28;30.38;;;;;;;;;;1030796;28;20527;-73
2023/02/07 00:32:29;;;;;;;62.17;28.17;;;;;;;;;;1031011;28;20032;-73
2023/02/07 00:33:00;;;;;;;77.95;31.52;;;;;;;;;;1029790;28;20069;-73
2023/02/07 00:33:31;;;;;;;68.68;31.30;;;;;;;;;;1025284;28;20027;-73
2023/02/07 00:34:03;;;;;;;84.45;29.13;;;;;;;;;;1026662;28;20471;-73
2023/02/07 00:34:35;;;;;;;78.20;29.92;;;;;;;;;;1023838;28;20018;-73
2023/02/07 00:35:05;;;;;;;63.08;28.20;;;;;;;;;;1026704;28;20026;-73
2023/02/07 00:35:36;;;;;;;76.80;31.73;;;;;;;;;;1029327;28;20054;-73
2023/02/07 00:36:07;;;;;;;65.22;26.40;;;;;;;;;;1029382;28;20030;-73
2023/02/07 00:36:39;;;;;;;89.82;32.42;;;;;;;;;;1029352;28;20060;-73
2023/02/07 00:37:09;;;;;;;78.55;31.98;;;;;;;;;;1029706;28;20022;-73
2023/02/07 00:37:39;;;;;;;93.65;33.90;;;;;;;;;;1024770;28;20181;-73
2023/02/07 00:38:10;;;;;;;78.28;30.90;;;;;;;;;;1025134;28;20026;-73
2023/02/07 00:38:41;;;;;;;98.50;34.72;;;;;;;;;;1024531;28;20525;-73
2023/02/07 00:39:12;;;;;;;77.18;31.83;;;;;;;;;;1024691;28;20507;-73
2023/02/07 00:39:43;;;;;;;74.13;29.90;;;;;;;;;;1029817;28;20466;-73
2023/02/07 00:40:13;;;;;;;81.80;34.88;;;;;;;;;;1029507;28;20037;-73
2023/02/07 00:40:44;;;;;;;83.90;34.45;;;;;;;;;;1029360;28;20026;-73
2023/02/07 00:41:17;;;;;;;82.75;31.73;;;;;;;;;;1029608;28;20015;-73
2023/02/07 00:41:47;;;;;;;76.30;31.58;;;;;;;;;;1029940;28;20077;-73
2023/02/07 00:42:18;;;;;;;76.50;34.67;;;;;;;;;;1028473;28;20475;-73
2023/02/07 00:42:48;;;;;;;96.05;33.55;;;;;;;;;;1025511;28;20101;-73
2023/02/07 00:43:19;;;;;;;79.72;32.42;;;;;;;;;;1025244;28;20398;-73
2023/02/07 00:43:49;;;;;;;70.60;28.55;;;;;;;;;;1025511;28;20493;-73
2023/02/07 00:44:20;;;;;;;70.75;32.75;;;;;;;;;;1026262;28;20038;-73
2023/02/07 00:44:50;;;;;;;83.43;34.58;;;;;;;;;;1029133;28;20022;-73
2023/02/07 00:45:21;;;;;;;79.28;31.38;;;;;;;;;;1029243;28;20026;-73
2023/02/07 00:45:52;;;;;;;82.40;33.17;;;;;;;;;;1030619;28;20092;-73
2023/02/07 00:46:23;;;;;;;73.40;32.67;;;;;;;;;;1029387;28;20023;-73
2023/02/07 00:46:53;;;;;;;76.57;34.47;;;;;;;;;;1030191;28;20470;-73
2023/02/07 00:47:24;;;;;;;74.53;28.60;;;;;;;;;;1028641;28;20025;-73
2023/02/07 00:47:54;;;;;;;78.50;32.50;;;;;;;;;;1029801;28;20471;-73
2023/02/07 00:48:28;;;;;;;57.85;25.33;;;;;;;;;;1029559;28;20019;-73
2023/02/07 00:48:59;;;;;;;74.68;31.00;;;;;;;;;;1025817;28;20036;-73
2023/02/07 00:49:29;;;;;;;66.43;29.15;;;;;;;;;;1025182;28;20050;-73
2023/02/07 00:50:00;;;;;;;64.82;26.73;;;;;;;;;;1025165;28;20495;-73
2023/02/07 00:50:30;;;;;;;78.72;31.83;;;;;;;;;;1024171;28;20563;-73
2023/02/07 00:51:01;;;;;;;85.53;32.88;;;;;;;;;;1027437;28;20034;-73
2023/02/07 00:51:32;;;;;;;71.63;32.78;;;;;;;;;;1027313;28;20022;-73
2023/02/07 00:52:02;;;;;;;75.97;30.63;;;;;;;;;;1029850;28;20023;-73
2023/02/07 00:52:33;;;;;;;78.25;30.98;;;;;;;;;;1029366;28;20497;-73
2023/02/07 00:53:03;;;;;;;82.25;30.10;;;;;;;;;;1029660;28;20015;-73
2023/02/07 00:53:34;;;;;;;61.13;26.55;;;;;;;;;;1028813;28;20029;-73
2023/02/07 00:54:05;;;;;;;76.18;27.33;;;;;;;;;;1028178;28;20041;-73
2023/02/07 00:54:35;;;;;;;74.20;26.05;;;;;;;;;;1029341;28;20046;-73
2023/02/07 00:55:06;;;;;;;70.57;28.02;;;;;;;;;;1030193;28;20434;-73
2023/02/07 00:55:36;;;;;;;76.85;29.35;;;;;;;;;;1023885;28;20502;-73
2023/02/07 00:56:07;;;;;;;93.75;34.17;;;;;;;;;;1025486;28;20443;-73
2023/02/07 00:56:38;;;;;;;68.13;27.45;;;;;;;;;;1024882;28;20506;-73
2023/02/07 00:57:08;;;;;;;77.53;33.40;;;;;;;;;;1025565;28;20119;-73
2023/02/07 00:57:39;;;;;;;77.82;35.42;;;;;;;;;;1030137;28;20026;-73
2023/02/07 00:58:09;;;;;;;70.20;28.88;;;;;;;;;;1029676;28;20113;-73
2023/02/07 00:58:40;;;;;;;74.60;30.08;;;;;;;;;;1029228;28;20065;-73
2023/02/07 00:59:10;;;;;;;71.05;29.48;;;;;;;;;;1029088;28;20114;-73
2023/02/07 00:59:41;;;;;;;83.18;30.27;;;;;;;;;;1026513;28;20390;-73
2023/02/07 01:00:12;;;;;;;86.60;32.90;;;;;;;;;;1025124;28;20059;-73
2023/02/07 01:00:42;;;;;;;93.45;32.67;;;;;;;;;;1025116;28;20034;-73
2023/02/07 01:01:13;;;;;;;75.32;28.40;;;;;;;;;;1025454;28;20033;-73
2023/02/07 01:01:43;;;;;;;68.72;28.38;;;;;;;;;;1027313;28;20030;-73
2023/02/07 01:02:14;;;;;;;81.30;30.55;;;;;;;;;;1027115;28;20069;-73
2023/02/07 01:02:44;;;;;;;71.15;27.90;;;;;;;;;;1025226;28;20035;-73
2023/02/07 01:03:15;;;;;;;74.15;27.90;;;;;;;;;;1023078;29;20155;-73
2023/02/07 01:03:46;;;;;;;70.50;30.85;;;;;;;;;;1025685;28;20030;-73
2023/02/07 01:04:16;;;;;;;76.22;32.03;;;;;;;;;;1024735;28;20011;-73
2023/02/07 01:04:47;;;;;;;72.25;30.20;;;;;;;;;;1024118;28;20113;-73
2023/02/07 01:05:17;;;;;;;65.68;29.05;;;;;;;;;;1025154;28;20058;-73
2023/02/07 01:05:48;;;;;;;77.30;27.98;;;;;;;;;;1025423;28;20029;-73
2023/02/07 01:06:19;;;;;;;72.22;27.15;;;;;;;;;;1030857;28;20389;-73
2023/02/07 01:06:49;;;;;;;70.50;30.42;;;;;;;;;;1029080;28;20018;-73
2023/02/07 01:07:21;;;;;;;81.07;34.60;;;;;;;;;;1028190;28;20549;-73
2023/02/07 01:07:52;;;;;;;70.13;28.77;;;;;;;;;;1029873;28;20030;-73
2023/02/07 01:08:22;;;;;;;67.43;28.17;;;;;;;;;;1029645;28;20022;-73
2023/02/07 01:08:56;;;;;;;73.55;23.92;;;;;;;;;;1028721;28;20029;-73
2023/02/07 01:09:27;;;;;;;73.15;27.63;;;;;;;;;;1029559;28;20097;-73
2023/02/07 01:09:57;;;;;;;69.43;27.63;;;;;;;;;;1029468;28;20062;-73
2023/02/07 01:10:28;;;;;;;64.80;28.48;;;;;;;;;;1029498;28;20561;-73
2023/02/07 01:11:03;;;;;;;78.75;30.63;;;;;;;;;;1029807;28;20482;-73
2023/02/07 01:11:33;;;;;;;75.45;29.80;;;;;;;;;;1028908;28;20054;-73
2023/02/07 01:12:04;;;;;;;73.05;27.75;;;;;;;;;;1030876;28;20363;-73
2023/02/07 01:12:35;;;;;;;69.68;27.17;;;;;;;;;;1028626;28;20034;-73
2023/02/07 01:13:05;;;;;;;69.78;26.00;;;;;;;;;;1029150;28;20045;-73
2023/02/07 01:13:36;;;;;;;76.97;26.70;;;;;;;;;;1029636;28;20059;-73
2023/02/07 01:14:07;;;;;;;71.47;27.60;;;;;;;;;;1029559;28;20026;-73
2023/02/07 01:14:37;;;;;;;71.00;29.90;;;;;;;;;;1027976;28;20027;-73
2023/02/07 01:15:08;;;;;;;64.90;29.02;;;;;;;;;;1025633;28;20518;-73
2023/02/07 01:15:39;;;;;;;85.47;32.40;;;;;;;;;;1021999;29;20469;-73
2023/02/07 01:16:18;;;;;;;74.13;30.15;;;;;;;;;;1022260;29;20019;-73
2023/02/07 01:16:48;;;;;;;62.55;26.13;;;;;;;;;;1022142;29;20114;-73
2023/02/07 01:17:19;;;;;;;67.68;26.52;;;;;;;;;;1025791;28;20426;-73
2023/02/07 01:17:49;;;;;;;75.20;27.55;;;;;;;;;;1028509;28;20023;-73
2023/02/07 01:18:20;;;;;;;80.82;30.88;;;;;;;;;;1025103;28;20118;-73
2023/02/07 01:18:51;;;;;;;76.00;27.63;;;;;;;;;;1024405;28;20519;-73
2023/02/07 01:19:21;;;;;;;68.90;26.85;;;;;;;;;;1024516;28;20121;-73
2023/02/07 01:19:56;;;;;;;78.40;28.70;;;;;;;;;;1027239;28;20534;-73
2023/02/07 01:20:27;;;;;;;63.25;24.83;;;;;;;;;;1028531;28;20049;-73
2023/02/07 01:20:58;;;;;;;70.25;30.02;;;;;;;;;;1029516;28;20019;-73
2023/02/07 01:21:28;;;;;;;69.43;28.63;;;;;;;;;;1029989;28;20156;-73
2023/02/07 01:21:59;;;;;;;80.53;29.73;;;;;;;;;;1030274;28;20140;-73
2023/02/07 01:22:29;;;;;;;59.53;24.45;;;;;;;;;;1028359;28;20482;-73
2023/02/07 01:23:00;;;;;;;76.47;27.05;;;;;;;;;;1026587;28;20070;-73
2023/02/07 01:23:30;;;;;;;76.85;26.00;;;;;;;;;;1029059;28;20026;-73
2023/02/07 01:24:01;;;;;;;91.80;30.50;;;;;;;;;;1027566;28;20030;-73
2023/02/07 01:24:34;;;;;;;52.65;25.20;;;;;;;;;;1024047;28;20569;-73
2023/02/07 01:25:05;;;;;;;70.68;29.35;;;;;;;;;;1025589;28;20032;-73
2023/02/07 01:25:37;;;;;;;73.82;26.80;;;;;;;;;;1024659;28;20099;-73
2023/02/07 01:26:07;;;;;;;64.93;26.90;;;;;;;;;;1024828;28;20027;-73
2023/02/07 01:26:38;;;;;;;68.45;25.92;;;;;;;;;;1023645;28;20503;-73
2023/02/07 01:27:09;;;;;;;66.68;28.70;;;;;;;;;;1024399;28;20026;-73
2023/02/07 01:27:40;;;;;;;73.85;28.35;;;;;;;;;;1024226;28;20031;-73
2023/02/07 01:28:11;;;;;;;61.22;23.60;;;;;;;;;;1026326;28;20018;-73
2023/02/07 01:28:42;;;;;;;55.15;24.38;;;;;;;;;;1023910;28;20027;-73
2023/02/07 01:29:13;;;;;;;61.00;26.63;;;;;;;;;;1021029;28;20126;-75
2023/02/07 01:29:44;;;;;;;70.60;27.95;;;;;;;;;;1018330;29;20026;-73
2023/02/07 01:30:14;;;;;;;69.15;23.83;;;;;;;;;;1020932;29;20114;-73
2023/02/07 01:30:45;;;;;;;73.05;27.45;;;;;;;;;;1022000;28;20034;-73
2023/02/07 01:31:15;;;;;;;75.30;25.75;;;;;;;;;;1025556;28;20029;-73
2023/02/07 01:31:46;;;;;;;58.58;25.70;;;;;;;;;;1021501;28;20023;-73
2023/02/07 01:32:17;;;;;;;71.32;27.70;;;;;;;;;;1021563;28;20035;-73
2023/02/07 01:32:47;;;;;;;70.93;28.45;;;;;;;;;;1021659;28;20866;-73
2023/02/07 01:33:18;;;;;;;61.08;24.77;;;;;;;;;;1024784;28;20054;-73
2023/02/07 01:33:53;;;;;;;75.38;28.33;;;;;;;;;;1028016;28;20031;-73
2023/02/07 01:34:23;;;;;;;61.72;26.60;;;;;;;;;;1029667;28;20611;-73
2023/02/07 01:34:54;;;;;;;56.08;25.60;;;;;;;;;;1027389;28;20018;-73
2023/02/07 01:35:24;;;;;;;66.18;26.88;;;;;;;;;;1022250;28;20484;-73
2023/02/07 01:35:55;;;;;;;65.22;25.40;;;;;;;;;;1024019;28;20029;-78
2023/02/07 01:36:27;;;;;;;68.03;25.92;;;;;;;;;;1023090;28;20031;-74
2023/02/07 01:36:57;;;;;;;63.03;23.88;;;;;;;;;;1026761;28;20162;-73
2023/02/07 01:37:28;;;;;;;65.05;23.90;;;;;;;;;;1028218;28;20078;-73
2023/02/07 01:37:58;;;;;;;59.92;24.40;;;;;;;;;;1028428;28;20027;-73
2023/02/07 01:38:29;;;;;;;69.47;24.52;;;;;;;;;;1029505;28;20026;-73
2023/02/07 01:39:00;;;;;;;48.15;21.00;;;;;;;;;;1025534;28;20023;-73
2023/02/07 01:39:30;;;;;;;47.45;21.27;;;;;;;;;;1025121;28;20030;-73
2023/02/07 01:40:00;;;;;;;56.30;25.60;;;;;;;;;;1025110;28;20031;-73
2023/02/07 01:40:34;;;;;;;56.30;25.48;;;;;;;;;;1025614;28;20463;-73
2023/02/07 01:41:05;;;;;;;63.92;26.90;;;;;;;;;;1027287;28;20800;-73
2023/02/07 01:41:35;;;;;;;55.70;25.02;;;;;;;;;;1028513;28;20015;-73
2023/02/07 01:42:09;;;;;;;52.85;25.98;;;;;;;;;;1028762;28;20034;-73
2023/02/07 01:42:39;;;;;;;66.93;26.55;;;;;;;;;;1028991;28;20023;-73
2023/02/07 01:43:15;;;;;;;64.40;25.70;;;;;;;;;;1029285;28;20046;-73
2023/02/07 01:43:57;;;;;;;58.38;26.45;;;;;;;;;;1030628;28;20022;-73
2023/02/07 01:44:27;;;;;;;53.80;24.85;;;;;;;;;;1029230;28;20030;-73
2023/02/07 01:44:59;;;;;;;59.97;25.80;;;;;;;;;;1027614;28;20501;-73
2023/02/07 01:45:37;;;;;;;70.72;24.67;;;;;;;;;;1028396;28;20029;-73
2023/02/07 01:46:08;;;;;;;64.25;22.42;;;;;;;;;;1026719;28;20030;-73
2023/02/07 01:46:38;;;;;;;67.57;25.42;;;;;;;;;;1027929;28;20471;-73
2023/02/07 01:47:11;;;;;;;66.28;26.02;;;;;;;;;;1027999;28;20030;-73
2023/02/07 01:47:41;;;;;;;58.30;25.27;;;;;;;;;;1029568;28;20031;-73
2023/02/07 01:48:14;;;;;;;45.05;24.15;;;;;;;;;;1030160;28;20155;-73
2023/02/07 01:48:44;;;;;;;63.35;25.30;;;;;;;;;;1028594;28;20053;-73
2023/02/07 01:49:15;;;;;;;67.18;25.60;;;;;;;;;;1027158;28;20041;-73
2023/02/07 01:49:46;;;;;;;74.22;27.52;;;;;;;;;;1027640;28;20026;-73
2023/02/07 01:50:17;;;;;;;67.30;25.50;;;;;;;;;;1025853;28;20032;-73
2023/02/07 01:50:48;;;;;;;76.13;27.38;;;;;;;;;;1024955;28;20019;-73
2023/02/07 01:51:19;;;;;;;61.13;23.40;;;;;;;;;;1025741;28;20494;-73
2023/02/07 01:51:52;;;;;;;57.97;23.65;;;;;;;;;;1027185;28;20033;-73
2023/02/07 01:52:26;;;;;;;70.18;27.70;;;;;;;;;;1031224;28;20085;-73
2023/02/07 01:52:59;;;;;;;62.88;26.38;;;;;;;;;;1026808;28;20328;-73
2023/02/07 01:53:30;;;;;;;57.35;23.30;;;;;;;;;;1025110;28;20038;-73
2023/02/07 01:54:03;;;;;;;71.47;25.10;;;;;;;;;;1025581;28;20064;-73
2023/02/07 01:54:34;;;;;;;68.72;23.02;;;;;;;;;;1025495;28;20522;-73
2023/02/07 01:55:07;;;;;;;65.00;25.25;;;;;;;;;;1027367;28;20027;-73
2023/02/07 01:55:39;;;;;;;56.20;25.45;;;;;;;;;;1024361;28;20023;-73
2023/02/07 01:56:11;;;;;;;76.97;31.85;;;;;;;;;;1027167;28;20094;-73
2023/02/07 01:56:44;;;;;;;68.68;25.23;;;;;;;;;;1025830;28;20078;-73
2023/02/07 01:57:16;;;;;;;75.65;28.80;;;;;;;;;;1025293;28;20027;-73
2023/02/07 01:57:47;;;;;;;70.43;28.38;;;;;;;;;;1023106;28;20501;-73
2023/02/07 01:58:18;;;;;;;71.15;28.75;;;;;;;;;;1024567;28;20125;-73
2023/02/07 01:58:49;;;;;;;59.50;27.33;;;;;;;;;;1021828;29;20448;-73
2023/02/07 01:59:19;;;;;;;88.65;30.77;;;;;;;;;;1025835;28;20483;-73
2023/02/07 01:59:51;;;;;;;64.78;27.98;;;;;;;;;;1025684;28;20034;-73
2023/02/07 02:00:23;;;;;;;69.10;26.90;;;;;;;;;;1025292;28;20023;-73
2023/02/07 02:00:53;;;;;;;71.35;27.20;;;;;;;;;;1025654;28;20028;-73
2023/02/07 02:01:24;;;;;;;74.95;30.20;;;;;;;;;;1026425;28;20114;-73
2023/02/07 02:01:55;;;;;;;76.47;29.02;;;;;;;;;;1028414;28;20126;-73
2023/02/07 02:02:27;;;;;;;71.28;30.90;;;;;;;;;;1028995;28;20454;-74
2023/02/07 02:02:58;;;;;;;84.75;29.55;;;;;;;;;;1030060;28;20084;-73
2023/02/07 02:03:28;;;;;;;76.15;27.83;;;;;;;;;;1029771;28;20503;-73
2023/02/07 02:04:00;;;;;;;79.93;28.92;;;;;;;;;;1028246;28;20023;-73
2023/02/07 02:04:30;;;;;;;73.65;29.95;;;;;;;;;;1028412;28;20085;-73
2023/02/07 02:05:02;;;;;;;74.50;29.42;;;;;;;;;;1024741;28;20110;-73
2023/02/07 02:05:33;;;;;;;72.97;31.67;;;;;;;;;;1024221;28;20030;-73
2023/02/07 02:06:04;;;;;;;83.93;30.38;;;;;;;;;;1025693;28;20010;-73
2023/02/07 02:06:35;;;;;;;90.90;34.58;;;;;;;;;;1028757;28;20033;-73
2023/02/07 02:07:06;;;;;;;72.18;28.27;;;;;;;;;;1028612;28;20035;-73
2023/02/07 02:07:38;;;;;;;72.05;30.55;;;;;;;;;;1030178;28;20011;-73
2023/02/07 02:08:08;;;;;;;59.35;27.38;;;;;;;;;;1031095;28;20069;-73
2023/02/07 02:08:39;;;;;;;77.13;31.55;;;;;;;;;;1028824;28;20038;-73
2023/02/07 02:09:11;;;;;;;68.05;29.63;;;;;;;;;;1028015;28;20860;-73
2023/02/07 02:09:41;;;;;;;100.57;34.53;;;;;;;;;;1029069;28;20022;-75
2023/02/07 02:10:13;;;;;;;76.95;31.08;;;;;;;;;;1030880;28;20379;-74
2023/02/07 02:10:44;;;;;;;67.82;32.35;;;;;;;;;;1029414;28;20466;-75
2023/02/07 02:11:41;;;;;;;77.78;31.70;;;;;;;;;;1028110;28;20022;-74
2023/02/07 02:12:20;;;;;;;69.60;29.75;;;;;;;;;;1025777;28;20046;-75
2023/02/07 02:12:56;;;;;;;72.35;28.35;;;;;;;;;;1027150;28;20082;-74
2023/02/07 02:13:28;;;;;;;72.25;27.80;;;;;;;;;;1025005;28;20069;-74
2023/02/07 02:14:07;;;;;;;91.70;30.85;;;;;;;;;;1026443;28;20035;-74
2023/02/07 02:14:48;;;;;;;85.63;29.55;;;;;;;;;;1028760;28;20051;-74
2023/02/07 02:15:27;;;;;;;71.05;30.48;;;;;;;;;;1029658;28;20030;-74
2023/02/07 02:16:03;;;;;;;75.72;32.00;;;;;;;;;;1028090;28;20030;-74
2023/02/07 02:16:38;;;;;;;85.10;30.48;;;;;;;;;;1029804;28;20037;-74
2023/02/07 02:17:14;;;;;;;88.60;29.35;;;;;;;;;;1027248;28;20022;-74
2023/02/07 02:17:53;;;;;;;73.13;26.77;;;;;;;;;;1028129;28;20185;-74
2023/02/07 02:18:46;;;;;;;68.75;28.42;;;;;;;;;;1027729;28;20435;-74
2023/02/07 02:19:25;;;;;;;67.63;30.38;;;;;;;;;;1024766;28;20074;-74
2023/02/07 02:20:14;;;;;;;74.88;30.08;;;;;;;;;;1024796;28;20068;-74
2023/02/07 02:20:46;;;;;;;74.05;28.38;;;;;;;;;;1024986;28;20027;-74
2023/02/07 02:21:20;;;;;;;75.97;30.33;;;;;;;;;;1028873;28;20027;-74
2023/02/07 02:21:51;;;;;;;79.38;29.92;;;;;;;;;;1025656;28;20042;-73
2023/02/07 02:22:27;;;;;;;71.65;29.48;;;;;;;;;;1023026;29;20078;-74
2023/02/07 02:23:16;;;;;;;79.90;31.30;;;;;;;;;;1020089;29;20023;-75
2023/02/07 02:24:01;;;;;;;75.18;29.65;;;;;;;;;;1024099;28;20023;-74
2023/02/07 02:24:31;;;;;;;72.90;27.05;;;;;;;;;;1025100;28;20027;-73
2023/02/07 02:25:10;;;;;;;86.63;29.55;;;;;;;;;;1027707;28;20109;-74
2023/02/07 02:25:43;;;;;;;77.97;28.75;;;;;;;;;;1028164;28;20037;-75
2023/02/07 02:26:20;;;;;;;83.45;30.33;;;;;;;;;;1027439;28;20022;-75
2023/02/07 02:27:02;;;;;;;81.97;28.90;;;;;;;;;;1023993;28;20035;-74
2023/02/07 02:27:35;;;;;;;77.13;29.88;;;;;;;;;;1026375;28;20027;-74
2023/02/07 02:28:30;;;;;;;79.15;29.17;;;;;;;;;;1026390;28;20076;-74
2023/02/07 02:29:21;;;;;;;87.35;31.08;;;;;;;;;;1028919;28;20624;-75
2023/02/07 02:30:13;;;;;;;85.45;28.13;;;;;;;;;;1026893;28;20034;-76
2023/02/07 02:31:00;;;;;;;89.75;32.88;;;;;;;;;;1025029;28;20023;-75
2023/02/07 02:31:34;;;;;;;90.93;30.92;;;;;;;;;;1022755;28;20043;-75
2023/02/07 02:32:07;;;;;;;94.68;33.85;;;;;;;;;;1021922;28;20032;-75
2023/02/07 02:32:46;;;;;;;88.53;33.45;;;;;;;;;;1020995;28;20027;-75
2023/02/07 02:33:23;;;;;;;83.82;30.38;;;;;;;;;;1022363;28;20039;-75
2023/02/07 02:33:53;;;;;;;89.55;31.08;;;;;;;;;;1020437;28;20027;-75
2023/02/07 02:34:31;;;;;;;73.72;29.15;;;;;;;;;;1024582;28;20034;-74
2023/02/07 02:35:04;;;;;;;83.05;32.35;;;;;;;;;;1022224;29;20134;-74
2023/02/07 02:35:34;;;;;;;92.35;32.08;;;;;;;;;;1023688;28;20034;-74
2023/02/07 02:36:09;;;;;;;80.65;32.63;;;;;;;;;;1022226;28;20050;-75
2023/02/07 02:36:58;;;;;;;96.82;33.72;;;;;;;;;;1020379;28;20031;-74
2023/02/07 02:37:40;;;;;;;86.97;32.45;;;;;;;;;;1025635;28;20526;-74
2023/02/07 02:38:19;;;;;;;89.65;33.53;;;;;;;;;;1028902;28;20042;-73
2023/02/07 02:39:15;;;;;;;81.40;32.30;;;;;;;;;;1028370;28;20026;-73
2023/02/07 02:39:46;;;;;;;80.00;30.08;;;;;;;;;;1019138;29;20423;-74
2023/02/07 02:40:19;;;;;;;92.57;35.33;;;;;;;;;;1021746;28;20079;-74
2023/02/07 02:40:50;;;;;;;76.35;31.23;;;;;;;;;;1026138;28;20026;-75
2023/02/07 02:41:22;;;;;;;80.93;36.33;;;;;;;;;;1025173;28;20027;-74
2023/02/07 02:42:08;;;;;;;91.03;33.28;;;;;;;;;;1023121;28;20637;-74
2023/02/07 02:42:42;;;;;;;89.28;30.63;;;;;;;;;;1025629;28;20062;-74
2023/02/07 02:43:33;;;;;;;92.15;36.03;;;;;;;;;;1028090;28;20068;-74
2023/02/07 02:44:09;;;;;;;86.63;33.67;;;;;;;;;;1028341;28;20041;-74
2023/02/07 02:44:54;;;;;;;96.82;34.63;;;;;;;;;;1029035;28;20050;-74
2023/02/07 02:45:25;;;;;;;98.88;33.47;;;;;;;;;;1028080;28;20418;-74
2023/02/07 02:45:58;;;;;;;82.20;33.20;;;;;;;;;;1026610;28;20062;-74
2023/02/07 02:46:40;;;;;;;95.65;36.85;;;;;;;;;;1022373;28;20027;-74
2023/02/07 02:47:11;;;;;;;93.80;34.35;;;;;;;;;;1019144;29;20035;-74
2023/02/07 02:47:43;;;;;;;93.97;34.92;;;;;;;;;;1020783;28;20026;-74
2023/02/07 02:48:15;;;;;;;93.22;37.78;;;;;;;;;;1024660;28;20039;-74
2023/02/07 02:48:49;;;;;;;98.60;34.85;;;;;;;;;;1025917;28;20030;-75
2023/02/07 02:49:22;;;;;;;89.95;33.22;;;;;;;;;;1027026;28;20469;-74
2023/02/07 02:49:53;;;;;;;98.63;36.35;;;;;;;;;;1022926;28;20027;-74
2023/02/07 02:50:25;;;;;;;94.13;32.75;;;;;;;;;;1024237;28;20019;-74
2023/02/07 02:50:59;;;;;;;97.07;36.35;;;;;;;;;;1020949;28;20039;-74
2023/02/07 02:51:31;;;;;;;94.90;34.53;;;;;;;;;;1022272;28;20668;-73
2023/02/07 02:52:02;;;;;;;98.30;36.05;;;;;;;;;;1024932;28;20023;-73
2023/02/07 02:52:32;;;;;;;95.85;37.33;;;;;;;;;;1025053;28;20098;-74
2023/02/07 02:53:03;;;;;;;95.75;35.33;;;;;;;;;;1024654;28;20065;-74
2023/02/07 02:53:34;;;;;;;117.07;38.08;;;;;;;;;;1028459;28;20036;-73
2023/02/07 02:54:24;;;;;;;105.15;38.35;;;;;;;;;;1026628;28;20022;-73
2023/02/07 02:54:55;;;;;;;82.30;29.95;;;;;;;;;;1028254;28;20057;-73
2023/02/07 02:55:37;;;;;;;100.93;33.33;;;;;;;;;;1024499;28;20113;-73
2023/02/07 02:56:16;;;;;;;94.45;33.85;;;;;;;;;;1024380;28;20042;-74
2023/02/07 02:56:54;;;;;;;105.72;37.53;;;;;;;;;;1024190;28;20034;-74
2023/02/07 02:57:29;;;;;;;87.88;30.48;;;;;;;;;;1024398;28;20454;-74
2023/02/07 02:58:06;;;;;;;106.32;37.55;;;;;;;;;;1023280;28;20551;-74
2023/02/07 02:58:58;;;;;;;110.57;38.60;;;;;;;;;;1021560;28;20093;-73
2023/02/07 02:59:34;;;;;;;115.20;36.58;;;;;;;;;;1022746;28;20720;-74
2023/02/07 03:00:18;;;;;;;97.88;33.78;;;;;;;;;;1024366;28;20045;-74
2023/02/07 03:00:49;;;;;;;103.07;36.30;;;;;;;;;;1025540;28;20371;-73
2023/02/07 03:01:46;;;;;;;117.75;32.45;;;;;;;;;;1026098;28;20027;-73
2023/02/07 03:02:32;;;;;;;95.88;32.97;;;;;;;;;;1023954;28;20030;-73
2023/02/07 03:03:21;;;;;;;90.47;31.77;;;;;;;;;;1024882;28;20074;-73
2023/02/07 03:03:52;;;;;;;119.25;37.72;;;;;;;;;;1021782;28;20125;-73
2023/02/07 03:04:23;;;;;;;120.40;36.15;;;;;;;;;;1027622;28;20027;-75
2023/02/07 03:05:14;;;;;;;111.15;36.55;;;;;;;;;;1024935;28;20030;-73
2023/02/07 03:06:01;;;;;;;109.88;36.22;;;;;;;;;;1025464;28;20031;-72
2023/02/07 03:06:38;;;;;;;106.97;34.00;;;;;;;;;;1022036;28;20509;-74
2023/02/07 03:07:31;;;;;;;108.25;35.35;;;;;;;;;;1027252;28;20027;-73
2023/02/07 03:08:06;;;;;;;106.22;34.17;;;;;;;;;;1022600;28;20090;-73
2023/02/07 03:08:52;;;;;;;107.07;40.08;;;;;;;;;;1021813;28;20023;-74
2023/02/07 03:09:30;;;;;;;104.55;37.72;;;;;;;;;;1024545;28;20067;-74
2023/02/07 03:10:01;;;;;;;102.00;36.47;;;;;;;;;;1028150;28;20069;-74
2023/02/07 03:10:37;;;;;;;101.93;35.67;;;;;;;;;;1026894;28;20617;-74
2023/02/07 03:11:18;;;;;;;93.60;34.22;;;;;;;;;;1030114;28;20581;-74
2023/02/07 03:12:21;;;;;;;129.05;35.40;;;;;;;;;;1025915;28;20038;-73
2023/02/07 03:12:52;;;;;;;73.07;28.02;;;;;;;;;;1020991;28;20027;-75
2023/02/07 03:13:30;;;;;;;77.75;28.58;;;;;;;;;;1019613;28;20031;-75